»·PEaware :: COA582 KSNA-KFAT

COA582 :: KSNA-KFAT

FLIGHT INFORMATION

Flight Status: Arrived
Operator:
Continental Air Lines
More flights by this operator :: More flights under this callsign
Pilot: John L. (29598)
Aircraft: BOEING 737-700
(B737)
More flights by this aircraft type
Origin: KSNA John Wayne-Orange Co
United States
Destination: KFAT Fresno Yosemite Intl
United States
More flights between these airports :: More routes between these airports
Route: HHERO3 EHF TTE ALTTA9
File this flight plan on PilotEdge
Remarks:
Altitude:
(Current/Filed)
30,000ft
Speed:
(Current/Filed)
460kts
Departed: 13-Jan-21 04:56 PM
Arrived: 13-Jan-21 05:44 PM
Distance/Time
Traveled:
207nm/0:47
Distance/Time
To Go:
Arrived

Flight Plot

Page will automatically refresh every two minutes.

Flight plan parsing failed; only flown route is shown


Map Options




Map Legend


Flown Route
Filed Route
Departure Airport
Arrival Airport
Navaid (VOR, NDB)
Fix

Horizontal Profiles

Position Reports

Time Latitude Longitude Heading Altitude Ground
Speed
13-Jan-21 16:21 33.676085 -117.864379 118 64ft 0kts
13-Jan-21 16:22 33.676085 -117.864379 118 64ft 0kts
13-Jan-21 16:23 33.676085 -117.864379 118 64ft 0kts
13-Jan-21 16:24 33.676085 -117.864379 118 64ft 0kts
13-Jan-21 16:25 33.676085 -117.864379 118 64ft 0kts
13-Jan-21 16:26 33.676085 -117.864379 118 64ft 0kts
13-Jan-21 16:27 33.676085 -117.864379 118 64ft 0kts
13-Jan-21 16:28 33.676085 -117.864379 118 64ft 0kts
13-Jan-21 16:29 33.676085 -117.864379 118 64ft 0kts
13-Jan-21 16:30 33.676085 -117.864379 118 64ft 0kts
13-Jan-21 16:31 33.676085 -117.864379 118 64ft 0kts
13-Jan-21 16:32 33.676085 -117.864379 118 64ft 0kts
13-Jan-21 16:33 33.676085 -117.864379 118 64ft 0kts
13-Jan-21 16:34 33.676085 -117.864379 118 64ft 0kts
13-Jan-21 16:35 33.676085 -117.864379 118 64ft 0kts
13-Jan-21 16:36 33.676085 -117.864379 118 64ft 0kts
13-Jan-21 16:37 33.676085 -117.864379 118 64ft 0kts
13-Jan-21 16:38 33.676085 -117.864379 118 64ft 0kts
13-Jan-21 16:39 33.676085 -117.864379 118 64ft 0kts
13-Jan-21 16:40 33.676085 -117.864379 118 64ft 0kts
13-Jan-21 16:41 33.676085 -117.864379 118 64ft 0kts
13-Jan-21 16:42 33.676085 -117.864379 118 64ft 0kts
13-Jan-21 16:43 33.676086 -117.864379 118 64ft 0kts
13-Jan-21 16:44 33.676212 -117.864659 113 64ft 2kts
13-Jan-21 16:45 33.676045 -117.865257 30 64ft 0kts
13-Jan-21 16:46 33.675980 -117.865296 27 64ft 0kts
13-Jan-21 16:47 33.675980 -117.865296 27 64ft 0kts
13-Jan-21 16:48 33.675980 -117.865296 27 64ft 0kts
13-Jan-21 16:49 33.675980 -117.865296 27 64ft 0kts
13-Jan-21 16:50 33.676268 -117.865115 27 64ft 9kts
13-Jan-21 16:51 33.678569 -117.863644 27 64ft 12kts
13-Jan-21 16:52 33.680642 -117.863063 299 64ft 0kts
13-Jan-21 16:53 33.680642 -117.863063 299 64ft 0kts
13-Jan-21 16:54 33.681461 -117.864894 290 64ft 9kts
13-Jan-21 16:55 33.662031 -117.877103 207 858ft 158kts
13-Jan-21 16:56 33.610718 -117.893500 187 2974ft 234kts
13-Jan-21 16:57 33.546018 -117.929087 220 6262ft 276kts
13-Jan-21 16:58 33.488547 -117.993439 228 9749ft 297kts
13-Jan-21 16:59 33.440053 -118.084743 245 12255ft 342kts
13-Jan-21 17:00 33.421918 -118.193422 279 15572ft 336kts
13-Jan-21 17:01 33.441395 -118.301224 295 18874ft 328kts
13-Jan-21 17:02 33.484022 -118.401540 303 20993ft 352kts
13-Jan-21 17:03 33.560780 -118.471100 345 23274ft 364kts
13-Jan-21 17:04 33.664054 -118.468804 3 25313ft 383kts
13-Jan-21 17:05 33.770810 -118.459213 356 27229ft 387kts
13-Jan-21 17:06 33.880773 -118.459656 357 28446ft 411kts
13-Jan-21 17:07 33.996503 -118.459944 355 30109ft 417kts
13-Jan-21 17:08 34.113388 -118.476840 350 30207ft 428kts
13-Jan-21 17:09 34.230555 -118.494840 350 30209ft 425kts
13-Jan-21 17:10 34.347651 -118.512882 350 30209ft 426kts
13-Jan-21 17:11 34.464957 -118.531005 350 30207ft 425kts
13-Jan-21 17:12 34.581924 -118.549124 349 30206ft 424kts
13-Jan-21 17:13 34.698541 -118.567243 349 30205ft 423kts
13-Jan-21 17:14 34.815017 -118.585389 349 30253ft 423kts
13-Jan-21 17:15 34.931379 -118.603574 349 30303ft 422kts
13-Jan-21 17:16 35.039866 -118.648722 326 30304ft 412kts
13-Jan-21 17:17 35.129569 -118.734886 318 30315ft 410kts
13-Jan-21 17:18 35.216758 -118.823467 319 30005ft 404kts
13-Jan-21 17:19 35.303417 -118.911727 319 30002ft 407kts
13-Jan-21 17:20 35.389996 -119.000144 319 29999ft 402kts
13-Jan-21 17:21 35.484975 -119.070081 339 30325ft 404kts
13-Jan-21 17:22 35.598597 -119.076935 1 28890ft 403kts
13-Jan-21 17:23 35.706400 -119.057787 2 26344ft 390kts
13-Jan-21 17:24 35.810876 -119.039100 2 23654ft 376kts
13-Jan-21 17:25 35.911801 -119.028587 348 21035ft 354kts
13-Jan-21 17:26 36.002484 -119.063170 336 18416ft 335kts
13-Jan-21 17:27 36.088214 -119.104039 336 15584ft 326kts
13-Jan-21 17:28 36.171177 -119.143618 337 12909ft 317kts
13-Jan-21 17:29 36.251796 -119.182162 338 10411ft 300kts
13-Jan-21 17:30 36.323819 -119.216672 339 8777ft 276kts
13-Jan-21 17:31 36.394262 -119.250491 339 7317ft 268kts
13-Jan-21 17:32 36.458257 -119.281281 339 6303ft 229kts
13-Jan-21 17:33 36.515419 -119.308818 339 4902ft 219kts
13-Jan-21 17:34 36.565555 -119.344864 311 4001ft 194kts
13-Jan-21 17:36 36.594869 -119.398338 305 3975ft 186kts
13-Jan-21 17:37 36.624607 -119.451541 306 3876ft 187kts
13-Jan-21 17:38 36.654853 -119.504321 307 3680ft 187kts
13-Jan-21 17:39 36.685051 -119.556936 306 3053ft 186kts
13-Jan-21 17:40 36.713229 -119.606157 306 2218ft 146kts
13-Jan-21 17:41 36.736616 -119.647029 305 1475ft 145kts
13-Jan-21 17:42 36.759906 -119.687955 306 695ft 143kts
13-Jan-21 17:43 36.778734 -119.720860 306 341ft 57kts
13-Jan-21 17:44 36.779089 -119.724636 214 341ft 20kts
13-Jan-21 17:45 36.776700 -119.723738 127 341ft 19kts
13-Jan-21 17:46 36.774696 -119.720342 137 341ft 12kts
13-Jan-21 17:47 36.772191 -119.719319 144 340ft 4kts

Navigation Log

Ident Type
Flight plan parsing failed, navigation log unavailable